Time;durP1;ratioP1;P1;durP2;ratioP2;P2;SDS_P1;SDS_P2;PMS_P1;PMS_P2;Temp;Humidity;BMP_temperature;BMP_pressure;BME280_temperature;BME280_humidity;BME280_pressure;Samples;Min_cycle;Max_cycle;Signal;HPM_P1;HPM_P2
2023/04/21 00:01:16;;;;;;;13.67;12.27;;;13.80;90.90;;;;;;5020294;28;20739;-93
2023/04/21 00:03:42;;;;;;;16.20;12.37;;;13.80;90.90;;;;;;5003681;28;20428;-93
2023/04/21 00:06:08;;;;;;;13.30;11.93;;;13.80;90.90;;;;;;5003742;28;20455;-93
2023/04/21 00:08:43;;;;;;;12.73;10.93;;;13.80;91.00;;;;;;5003756;28;20462;-92
2023/04/21 00:11:13;;;;;;;14.97;12.90;;;13.80;91.00;;;;;;5019886;28;20520;-92
2023/04/21 00:13:39;;;;;;;14.40;12.63;;;13.80;91.10;;;;;;5036632;28;20429;-91
2023/04/21 00:16:07;;;;;;;15.00;12.17;;;13.80;91.20;;;;;;5020124;28;20790;-92
2023/04/21 00:18:36;;;;;;;15.13;12.57;;;13.70;91.10;;;;;;5003690;28;20906;-93
2023/04/21 00:21:02;;;;;;;15.63;13.40;;;13.80;91.20;;;;;;5022698;28;20522;-92
2023/04/21 00:23:28;;;;;;;13.63;12.00;;;13.70;91.10;;;;;;5023131;28;20490;-94
2023/04/21 00:25:54;;;;;;;15.10;12.23;;;13.70;91.20;;;;;;5022002;28;20523;-92
2023/04/21 00:28:20;;;;;;;15.13;13.40;;;13.70;91.20;;;;;;5004970;28;20199;-92
2023/04/21 00:30:46;;;;;;;13.33;12.00;;;13.70;91.60;;;;;;5003423;28;20496;-90
2023/04/21 00:33:14;;;;;;;17.37;12.67;;;13.70;91.20;;;;;;4987168;28;20421;-92
2023/04/21 00:35:40;;;;;;;16.47;12.33;;;13.70;91.20;;;;;;5019553;28;20327;-93
2023/04/21 00:38:08;;;;;;;12.77;11.43;;;13.70;91.30;;;;;;5004124;28;20439;-92
2023/04/21 00:40:35;;;;;;;17.70;13.53;;;13.70;91.30;;;;;;5016049;28;20449;-92
2023/04/21 00:43:04;;;;;;;16.50;12.83;;;13.60;91.30;;;;;;4999837;28;20779;-93
2023/04/21 00:45:37;;;;;;;12.90;11.57;;;13.70;91.40;;;;;;5070582;28;20581;-73
2023/04/21 00:48:03;;;;;;;14.10;11.37;;;13.60;91.40;;;;;;5052901;28;20397;-73
2023/04/21 00:50:31;;;;;;;12.37;10.30;;;13.60;91.40;;;;;;5069187;28;20428;-72
2023/04/21 00:53:02;;;;;;;15.43;12.93;;;13.60;91.50;;;;;;5069431;28;20409;-73
2023/04/21 00:55:30;;;;;;;16.13;13.33;;;13.60;91.40;;;;;;5052742;28;20434;-73
2023/04/21 00:57:59;;;;;;;12.77;11.43;;;13.60;91.40;;;;;;5069122;28;20444;-73
2023/04/21 01:00:27;;;;;;;16.03;13.40;;;13.60;91.50;;;;;;5069177;28;20386;-73
2023/04/21 01:02:54;;;;;;;16.40;12.80;;;13.60;91.60;;;;;;5068994;28;20397;-73
2023/04/21 01:05:24;;;;;;;16.87;13.53;;;13.60;91.60;;;;;;5068880;28;20529;-73
2023/04/21 01:07:52;;;;;;;16.73;12.70;;;13.60;91.60;;;;;;5068991;28;20902;-73
2023/04/21 01:10:18;;;;;;;15.13;12.50;;;13.60;91.70;;;;;;5068914;28;20392;-73
2023/04/21 01:12:52;;;;;;;17.30;13.23;;;13.60;91.70;;;;;;5053092;28;20456;-73
2023/04/21 01:15:18;;;;;;;15.50;12.80;;;13.50;91.70;;;;;;5052364;28;20456;-73
2023/04/21 01:17:48;;;;;;;16.20;13.10;;;13.50;91.80;;;;;;5052195;28;20499;-73
2023/04/21 01:20:14;;;;;;;18.20;12.97;;;13.50;91.80;;;;;;5052253;28;20435;-73
2023/04/21 01:22:41;;;;;;;13.20;11.70;;;13.50;91.80;;;;;;5052270;28;20452;-73
2023/04/21 01:25:08;;;;;;;16.30;13.00;;;13.50;91.80;;;;;;5069726;28;20447;-73
2023/04/21 01:27:37;;;;;;;13.87;12.27;;;13.50;91.90;;;;;;5052122;28;20922;-73
2023/04/21 01:30:08;;;;;;;17.50;13.93;;;13.50;91.90;;;;;;5068600;28;20398;-73
2023/04/21 01:32:35;;;;;;;14.57;12.03;;;13.50;91.90;;;;;;5035312;28;20452;-73
2023/04/21 01:35:01;;;;;;;16.83;12.50;;;13.50;91.90;;;;;;5052015;28;20423;-73
2023/04/21 01:37:31;;;;;;;14.93;12.77;;;13.50;91.90;;;;;;5052020;28;20431;-73
2023/04/21 01:40:00;;;;;;;15.77;13.80;;;13.50;91.90;;;;;;5069472;28;20401;-73
2023/04/21 01:42:29;;;;;;;17.40;13.30;;;13.50;92.30;;;;;;5068133;28;20446;-73
2023/04/21 01:44:57;;;;;;;15.30;12.70;;;13.50;92.30;;;;;;5051322;28;20462;-73
2023/04/21 01:47:28;;;;;;;18.37;13.03;;;13.40;91.90;;;;;;5051961;28;20405;-73
2023/04/21 01:49:54;;;;;;;15.63;13.17;;;13.40;92.00;;;;;;5051688;28;20783;-73
2023/04/21 01:52:20;;;;;;;14.47;12.97;;;13.40;92.00;;;;;;5051435;28;20517;-73
2023/04/21 01:54:46;;;;;;;18.00;12.20;;;13.40;92.00;;;;;;5067353;28;20770;-73
2023/04/21 01:57:16;;;;;;;14.43;12.03;;;13.40;92.00;;;;;;5037954;28;20789;-73
2023/04/21 01:59:48;;;;;;;17.60;13.63;;;13.40;92.00;;;;;;5038438;28;20405;-72
2023/04/21 02:02:14;;;;;;;14.80;12.53;;;13.40;92.10;;;;;;5038189;28;20445;-73
2023/04/21 02:04:42;;;;;;;16.80;13.10;;;13.40;92.10;;;;;;5037948;28;21036;-72
2023/04/21 02:07:10;;;;;;;17.80;13.17;;;13.40;92.10;;;;;;5038098;28;20478;-73
2023/04/21 02:09:41;;;;;;;16.50;13.40;;;13.40;92.10;;;;;;5038336;28;20816;-73
2023/04/21 02:12:09;;;;;;;16.70;12.30;;;13.40;92.20;;;;;;5054550;28;20444;-73
2023/04/21 02:14:38;;;;;;;15.00;12.57;;;13.40;92.20;;;;;;5037833;28;20418;-73
2023/04/21 02:17:09;;;;;;;18.03;13.20;;;13.40;92.20;;;;;;5021792;28;20426;-73
2023/04/21 02:19:36;;;;;;;17.50;13.23;;;13.40;92.20;;;;;;5021455;28;20419;-73
2023/04/21 02:22:07;;;;;;;16.30;12.63;;;13.40;92.30;;;;;;5038207;28;20460;-73
2023/04/21 02:24:33;;;;;;;17.57;13.77;;;13.40;92.70;;;;;;5037610;28;20477;-73
2023/04/21 02:27:02;;;;;;;16.40;13.43;;;13.30;92.30;;;;;;5054196;28;20476;-73
2023/04/21 02:29:28;;;;;;;17.17;13.27;;;13.30;92.30;;;;;;5054227;28;20401;-72
2023/04/21 02:31:54;;;;;;;15.10;13.20;;;13.30;92.30;;;;;;5054098;28;20512;-73
2023/04/21 02:34:22;;;;;;;15.03;12.30;;;13.30;92.40;;;;;;5054119;28;20491;-73
2023/04/21 02:36:48;;;;;;;16.37;12.70;;;13.30;92.40;;;;;;5037654;28;20414;-73
2023/04/21 02:39:18;;;;;;;18.47;13.93;;;13.30;92.40;;;;;;5037546;28;20425;-73
2023/04/21 02:41:44;;;;;;;16.70;13.10;;;13.30;92.40;;;;;;5037414;28;20452;-73
2023/04/21 02:44:11;;;;;;;17.00;13.73;;;13.30;92.50;;;;;;5053788;28;20835;-73
2023/04/21 02:46:40;;;;;;;16.23;12.80;;;13.30;92.50;;;;;;5020903;28;20419;-72
2023/04/21 02:49:09;;;;;;;16.73;14.40;;;13.30;92.50;;;;;;5037452;28;20413;-73
2023/04/21 02:51:36;;;;;;;18.27;13.97;;;13.30;92.60;;;;;;5053703;28;20514;-73
2023/04/21 02:54:04;;;;;;;17.73;14.00;;;13.30;92.50;;;;;;5053594;28;20466;-72
2023/04/21 02:56:30;;;;;;;18.63;14.40;;;13.30;92.60;;;;;;5053848;28;20500;-73
2023/04/21 02:58:56;;;;;;;20.07;14.53;;;13.20;92.60;;;;;;5053562;28;20409;-72
2023/04/21 03:01:22;;;;;;;18.63;13.50;;;13.20;92.60;;;;;;5053518;28;20481;-73
2023/04/21 03:03:51;;;;;;;17.23;13.70;;;13.20;92.70;;;;;;5037100;28;20460;-73
2023/04/21 03:06:19;;;;;;;17.87;15.03;;;13.20;92.70;;;;;;5036882;28;20913;-73
2023/04/21 03:08:45;;;;;;;19.60;14.23;;;13.20;92.70;;;;;;5052556;28;20850;-73
2023/04/21 03:11:13;;;;;;;17.73;13.40;;;13.20;92.80;;;;;;5036798;28;20852;-73
2023/04/21 03:13:41;;;;;;;19.60;13.00;;;13.20;92.80;;;;;;5036807;28;20432;-73
2023/04/21 03:16:10;;;;;;;15.07;12.97;;;13.20;92.80;;;;;;5053220;28;20460;-73
2023/04/21 03:18:36;;;;;;;17.00;12.93;;;13.20;92.80;;;;;;5053434;28;20476;-73
2023/04/21 03:21:06;;;;;;;16.00;13.60;;;13.20;92.80;;;;;;5036995;28;20442;-73
2023/04/21 03:23:36;;;;;;;22.17;13.63;;;13.20;92.80;;;;;;5053160;28;20412;-73
2023/04/21 03:26:10;;;;;;;16.70;12.80;;;13.20;92.80;;;;;;5036619;28;20907;-72
2023/04/21 03:28:36;;;;;;;18.27;14.10;;;13.20;92.80;;;;;;5036551;28;20491;-72
2023/04/21 03:31:02;;;;;;;15.73;13.00;;;13.20;92.80;;;;;;5036518;28;20445;-72
2023/04/21 03:33:28;;;;;;;18.80;12.90;;;13.20;92.80;;;;;;5036448;28;20397;-72
2023/04/21 03:35:54;;;;;;;16.47;14.50;;;13.20;92.90;;;;;;5036582;28;20486;-72
2023/04/21 03:38:20;;;;;;;17.33;13.53;;;13.20;92.90;;;;;;5052414;28;20405;-72
2023/04/21 03:40:51;;;;;;;19.80;13.93;;;13.20;92.90;;;;;;5052789;28;20522;-72
2023/04/21 03:43:22;;;;;;;17.57;14.40;;;13.10;92.90;;;;;;5019970;28;20517;-72
2023/04/21 03:45:51;;;;;;;16.97;13.47;;;13.10;92.90;;;;;;5036194;28;20468;-72
2023/04/21 03:48:20;;;;;;;18.40;12.77;;;13.10;92.90;;;;;;5036257;28;20434;-72
2023/04/21 03:50:46;;;;;;;16.17;12.70;;;13.10;92.90;;;;;;5053740;28;20472;-72
2023/04/21 03:53:15;;;;;;;18.37;13.20;;;13.10;93.20;;;;;;5052540;28;20494;-72
2023/04/21 03:55:47;;;;;;;18.20;14.27;;;13.10;92.90;;;;;;5053769;28;20409;-72
2023/04/21 03:58:14;;;;;;;16.73;12.63;;;13.10;92.90;;;;;;5051546;28;20518;-72
2023/04/21 04:00:43;;;;;;;16.20;12.80;;;13.10;92.90;;;;;;5035811;28;20437;-72
2023/04/21 04:03:11;;;;;;;17.13;12.90;;;13.10;92.90;;;;;;5052188;28;20461;-72
2023/04/21 04:05:41;;;;;;;14.67;12.50;;;13.10;92.80;;;;;;5052186;28;20998;-72
2023/04/21 04:08:07;;;;;;;18.60;13.03;;;13.10;92.80;;;;;;5052197;28;20586;-72
2023/04/21 04:10:33;;;;;;;16.43;12.67;;;13.00;92.70;;;;;;5052364;28;20928;-72
2023/04/21 04:13:02;;;;;;;14.47;11.90;;;13.10;92.70;;;;;;5053444;28;20402;-72
2023/04/21 04:15:28;;;;;;;15.30;11.70;;;13.10;92.70;;;;;;5053328;28;20177;-72
2023/04/21 04:17:54;;;;;;;16.63;13.20;;;13.00;92.60;;;;;;5053351;28;20417;-72
2023/04/21 04:20:20;;;;;;;14.17;11.60;;;13.00;92.60;;;;;;5052035;28;20534;-72
2023/04/21 04:22:49;;;;;;;15.87;13.33;;;13.00;92.60;;;;;;5052257;28;20427;-72
2023/04/21 04:25:15;;;;;;;16.83;13.40;;;13.00;92.50;;;;;;5053267;28;20440;-72
2023/04/21 04:27:48;;;;;;;14.97;12.37;;;13.00;92.40;;;;;;5052066;28;20410;-72
2023/04/21 04:30:14;;;;;;;15.87;12.90;;;13.00;92.50;;;;;;5052212;28;20434;-72
2023/04/21 04:32:43;;;;;;;16.47;13.20;;;13.00;92.50;;;;;;5052801;28;20439;-74
2023/04/21 04:35:09;;;;;;;16.23;12.47;;;13.00;92.40;;;;;;5052069;28;20863;-74
2023/04/21 04:37:41;;;;;;;12.97;11.57;;;13.00;92.40;;;;;;5035612;28;20431;-74
2023/04/21 04:40:14;;;;;;;13.77;11.27;;;13.00;92.40;;;;;;5051726;28;20457;-74
2023/04/21 04:42:41;;;;;;;16.23;12.40;;;12.90;92.30;;;;;;5035050;28;20456;-74
2023/04/21 04:45:08;;;;;;;15.37;12.03;;;12.90;92.30;;;;;;5035087;28;20475;-74
2023/04/21 04:47:34;;;;;;;15.83;12.13;;;12.90;92.20;;;;;;5052029;28;20504;-74
2023/04/21 04:50:03;;;;;;;14.70;11.90;;;12.90;92.20;;;;;;5051784;28;20450;-74
2023/04/21 04:52:29;;;;;;;14.63;10.60;;;12.90;92.20;;;;;;5018956;28;20436;-74
2023/04/21 04:54:58;;;;;;;13.87;11.50;;;12.90;92.20;;;;;;5035295;28;20474;-74
2023/04/21 04:57:26;;;;;;;14.00;12.43;;;12.90;92.10;;;;;;5051798;28;20164;-74
2023/04/21 04:59:55;;;;;;;15.40;11.73;;;12.90;92.10;;;;;;5051646;28;20401;-74
2023/04/21 05:02:26;;;;;;;15.47;11.70;;;12.80;92.10;;;;;;5051724;28;21113;-76
2023/04/21 05:04:52;;;;;;;15.10;12.57;;;12.90;92.10;;;;;;5051665;28;20450;-74
2023/04/21 05:07:18;;;;;;;14.23;11.07;;;12.90;92.10;;;;;;5051744;28;20447;-74
2023/04/21 05:09:46;;;;;;;13.30;11.60;;;12.90;92.10;;;;;;5051598;28;20452;-74
2023/04/21 05:12:13;;;;;;;15.40;12.07;;;12.90;92.10;;;;;;5035123;28;20441;-74
2023/04/21 05:14:41;;;;;;;15.00;11.43;;;12.80;92.00;;;;;;5051641;28;20893;-75
2023/04/21 05:17:09;;;;;;;12.83;10.67;;;12.80;92.00;;;;;;5051921;28;20400;-77
2023/04/21 05:19:38;;;;;;;12.30;10.67;;;12.80;92.00;;;;;;5052868;28;20425;-74
2023/04/21 05:22:07;;;;;;;13.30;10.83;;;12.80;92.00;;;;;;5035304;28;20822;-75
2023/04/21 05:24:33;;;;;;;14.27;11.17;;;12.80;92.00;;;;;;5050959;28;20538;-75
2023/04/21 05:27:01;;;;;;;12.03;10.43;;;12.80;92.00;;;;;;5052476;28;20390;-73
2023/04/21 05:29:28;;;;;;;16.10;11.33;;;12.80;91.90;;;;;;5051464;28;20412;-76
2023/04/21 05:31:54;;;;;;;14.73;11.03;;;12.80;92.00;;;;;;5054099;28;20813;-77
2023/04/21 05:34:20;;;;;;;14.80;11.10;;;12.80;92.00;;;;;;5046774;28;20436;-74
2023/04/21 05:36:48;;;;;;;15.20;12.30;;;12.80;92.40;;;;;;5035170;28;20537;-75
2023/04/21 05:39:20;;;;;;;14.50;11.50;;;12.80;92.10;;;;;;5019090;28;20431;-74
2023/04/21 05:41:46;;;;;;;13.70;11.53;;;12.80;92.50;;;;;;5018683;28;20446;-74
2023/04/21 05:44:18;;;;;;;15.37;12.03;;;12.80;92.20;;;;;;5034731;28;20472;-73
2023/04/21 05:46:46;;;;;;;12.67;11.17;;;12.80;92.30;;;;;;5018731;28;20427;-73
2023/04/21 05:49:14;;;;;;;15.00;11.93;;;12.80;92.40;;;;;;5035152;28;20426;-74
2023/04/21 05:51:43;;;;;;;12.67;11.07;;;12.80;92.40;;;;;;5034882;28;20438;-73
2023/04/21 05:54:09;;;;;;;16.00;12.10;;;12.80;92.40;;;;;;5023180;28;21271;-75
2023/04/21 05:56:37;;;;;;;13.30;10.77;;;12.80;92.50;;;;;;5019176;28;21040;-73
2023/04/21 05:59:05;;;;;;;15.30;12.00;;;12.80;92.60;;;;;;5043269;28;20421;-73
2023/04/21 06:01:33;;;;;;;11.73;10.00;;;12.80;92.60;;;;;;5035765;28;20460;-74
2023/04/21 06:04:00;;;;;;;14.37;12.07;;;12.70;92.60;;;;;;5035753;28;20478;-73
2023/04/21 06:06:26;;;;;;;14.17;11.30;;;12.70;92.60;;;;;;5016803;23;20877;-76
2023/04/21 06:08:55;;;;;;;15.63;11.90;;;12.80;93.00;;;;;;4961799;28;20416;-77
2023/04/21 06:11:21;;;;;;;15.60;11.60;;;12.70;92.70;;;;;;4978507;28;20441;-76
2023/04/21 06:13:47;;;;;;;15.03;11.97;;;12.70;92.70;;;;;;4975293;28;20430;-76
2023/04/21 06:16:13;;;;;;;13.23;11.77;;;12.70;92.70;;;;;;4989919;28;20446;-76
2023/04/21 06:18:42;;;;;;;17.07;11.60;;;12.70;92.80;;;;;;4974245;28;20466;-76
2023/04/21 06:21:08;;;;;;;14.80;11.40;;;12.70;92.80;;;;;;4974084;28;20537;-76
2023/04/21 06:23:34;;;;;;;14.03;11.10;;;12.70;92.80;;;;;;4973387;28;20464;-77
2023/04/21 06:26:05;;;;;;;15.27;12.03;;;12.70;92.80;;;;;;4974569;28;20433;-76
2023/04/21 06:28:33;;;;;;;14.30;10.93;;;12.70;92.90;;;;;;4973907;28;20414;-77
2023/04/21 06:31:02;;;;;;;17.33;12.27;;;12.70;93.00;;;;;;4974373;28;20875;-76
2023/04/21 06:33:29;;;;;;;12.17;10.53;;;12.70;93.00;;;;;;4974253;28;20413;-76
2023/04/21 06:35:56;;;;;;;13.20;11.13;;;12.70;93.00;;;;;;4958389;28;20468;-76
2023/04/21 06:38:22;;;;;;;14.80;11.20;;;12.70;93.00;;;;;;4958407;28;20429;-76
2023/04/21 06:40:48;;;;;;;12.50;10.53;;;12.70;93.00;;;;;;4954405;28;20464;-74
2023/04/21 06:43:16;;;;;;;14.60;12.30;;;12.70;93.10;;;;;;4942716;28;20453;-77
2023/04/21 06:45:42;;;;;;;14.30;10.60;;;12.70;93.10;;;;;;4938673;29;20829;-76
2023/04/21 06:48:08;;;;;;;12.80;10.73;;;12.70;93.00;;;;;;4969128;28;20448;-75
2023/04/21 06:50:37;;;;;;;11.73;10.27;;;12.70;93.00;;;;;;4973936;28;20436;-75
2023/04/21 06:53:03;;;;;;;15.50;11.63;;;12.70;93.00;;;;;;4973756;28;20998;-73
2023/04/21 06:55:31;;;;;;;15.20;11.77;;;12.70;93.00;;;;;;4970492;28;20807;-76
2023/04/21 06:58:00;;;;;;;13.60;11.07;;;12.70;93.10;;;;;;4972321;28;20456;-73
2023/04/21 07:00:26;;;;;;;15.80;11.63;;;12.70;93.10;;;;;;4969764;28;20479;-73
2023/04/21 07:02:54;;;;;;;14.23;12.50;;;12.70;93.00;;;;;;4953083;28;20811;-75
2023/04/21 07:05:20;;;;;;;13.90;11.07;;;12.70;93.10;;;;;;4967215;28;20478;-75
2023/04/21 07:07:46;;;;;;;13.83;11.47;;;12.70;93.20;;;;;;4973340;28;20413;-73
2023/04/21 07:10:18;;;;;;;15.80;11.57;;;12.70;93.10;;;;;;4957604;28;20243;-75
2023/04/21 07:12:45;;;;;;;14.90;12.40;;;12.80;93.20;;;;;;4972377;28;20519;-75
2023/04/21 07:15:11;;;;;;;13.93;10.80;;;12.70;93.10;;;;;;4973106;28;20902;-75
2023/04/21 07:17:40;;;;;;;12.67;10.30;;;12.80;93.20;;;;;;4973457;28;20489;-74
2023/04/21 07:20:06;;;;;;;14.03;11.70;;;12.70;93.10;;;;;;4941318;28;20436;-75
2023/04/21 07:22:34;;;;;;;15.03;11.10;;;12.70;93.10;;;;;;4974063;28;20484;-76
2023/04/21 07:25:05;;;;;;;15.10;11.40;;;12.70;93.10;;;;;;4956899;28;20462;-76
2023/04/21 07:27:35;;;;;;;14.63;10.80;;;12.70;93.10;;;;;;4989229;28;20409;-76
2023/04/21 07:30:06;;;;;;;13.67;11.40;;;12.80;93.20;;;;;;4972694;28;20438;-77
2023/04/21 07:32:35;;;;;;;13.87;10.40;;;12.70;93.10;;;;;;4972973;28;20454;-76
2023/04/21 07:35:06;;;;;;;13.60;11.20;;;12.70;93.10;;;;;;4988517;28;20476;-76
2023/04/21 07:37:32;;;;;;;14.03;10.53;;;12.80;93.10;;;;;;4988926;28;20421;-75
2023/04/21 07:40:05;;;;;;;12.70;9.90;;;12.80;93.10;;;;;;4972985;28;20831;-76
2023/04/21 07:42:31;;;;;;;12.10;10.33;;;12.80;93.50;;;;;;4956493;28;20447;-75
2023/04/21 07:44:59;;;;;;;14.07;10.80;;;12.80;93.10;;;;;;4956759;28;20477;-75
2023/04/21 07:47:26;;;;;;;14.30;10.33;;;12.80;93.10;;;;;;4985562;28;20802;-75
2023/04/21 07:49:54;;;;;;;12.50;10.83;;;12.80;93.20;;;;;;4969403;28;20563;-75
2023/04/21 07:52:20;;;;;;;14.40;10.67;;;12.80;93.20;;;;;;4953276;29;20476;-75
2023/04/21 07:54:49;;;;;;;13.13;10.20;;;12.80;93.30;;;;;;4973310;28;20422;-75
2023/04/21 07:57:24;;;;;;;11.93;10.07;;;12.80;93.40;;;;;;4973789;28;20409;-75
2023/04/21 07:59:54;;;;;;;15.07;12.27;;;12.80;93.40;;;;;;4972283;28;20448;-75
2023/04/21 08:02:20;;;;;;;13.23;10.67;;;12.80;93.40;;;;;;4972222;28;20444;-73
2023/04/21 08:04:46;;;;;;;12.63;11.03;;;12.80;93.40;;;;;;4971626;28;20576;-73
2023/04/21 08:07:14;;;;;;;12.07;10.00;;;12.80;93.50;;;;;;4972390;28;20554;-73
2023/04/21 08:09:40;;;;;;;12.40;9.27;;;12.80;93.40;;;;;;4968124;28;20232;-73
2023/04/21 08:12:06;;;;;;;14.03;10.77;;;12.80;93.40;;;;;;4993060;28;20450;-72
2023/04/21 08:14:37;;;;;;;11.43;8.97;;;12.80;93.30;;;;;;4972520;28;20417;-72
2023/04/21 08:17:05;;;;;;;10.80;9.27;;;12.80;93.40;;;;;;4991712;28;20487;-73
2023/04/21 08:19:33;;;;;;;12.33;9.43;;;12.90;93.40;;;;;;4960786;28;20449;-72
2023/04/21 08:22:02;;;;;;;10.20;8.50;;;12.90;93.40;;;;;;4984010;28;20459;-72
2023/04/21 08:24:32;;;;;;;11.03;9.60;;;12.90;93.40;;;;;;4992580;28;20459;-72
2023/04/21 08:26:58;;;;;;;9.80;8.80;;;12.90;93.40;;;;;;4971075;28;20934;-72
2023/04/21 08:29:27;;;;;;;14.77;10.73;;;12.90;93.60;;;;;;4958034;28;20418;-72
2023/04/21 08:31:53;;;;;;;12.33;9.67;;;12.90;93.60;;;;;;4969957;28;20974;-72
2023/04/21 08:34:19;;;;;;;13.23;9.30;;;12.90;93.60;;;;;;4972041;28;20394;-72
2023/04/21 08:36:47;;;;;;;13.37;9.90;;;12.90;93.70;;;;;;4956085;28;20429;-72
2023/04/21 08:39:16;;;;;;;10.60;9.30;;;12.90;93.70;;;;;;4940442;28;20471;-72
2023/04/21 08:41:42;;;;;;;11.87;9.43;;;12.90;93.70;;;;;;4972884;28;20447;-72
2023/04/21 08:44:10;;;;;;;12.00;10.17;;;12.90;93.50;;;;;;4967554;28;20890;-72
2023/04/21 08:46:39;;;;;;;12.37;9.70;;;12.90;93.70;;;;;;4979694;28;21044;-72
2023/04/21 08:49:10;;;;;;;10.77;8.90;;;12.90;93.60;;;;;;4991382;28;20444;-72
2023/04/21 08:51:44;;;;;;;10.20;8.60;;;13.00;93.70;;;;;;4972083;28;20449;-72
2023/04/21 08:54:11;;;;;;;11.50;8.97;;;13.00;93.60;;;;;;4952486;29;20416;-72
2023/04/21 08:56:39;;;;;;;12.30;9.63;;;13.00;93.50;;;;;;4949504;28;20455;-72
2023/04/21 08:59:05;;;;;;;11.50;8.20;;;13.00;93.50;;;;;;4983131;28;20826;-72
2023/04/21 09:02:06;;;;;;;10.10;8.57;;;13.00;93.50;;;;;;4971621;28;20440;-72
2023/04/21 09:04:36;;;;;;;11.10;9.67;;;13.00;93.60;;;;;;4971476;28;20474;-72
2023/04/21 09:07:02;;;;;;;11.00;9.30;;;13.00;93.70;;;;;;4957263;28;21010;-71
2023/04/21 09:09:30;;;;;;;11.10;9.53;;;13.00;93.60;;;;;;4974076;28;20440;-72
2023/04/21 09:11:57;;;;;;;9.43;8.43;;;13.00;93.60;;;;;;4957181;28;20453;-72
2023/04/21 09:14:33;;;;;;;10.87;9.57;;;13.10;93.70;;;;;;4975123;28;20932;-72
2023/04/21 09:17:03;;;;;;;10.83;8.77;;;13.10;93.70;;;;;;4977083;28;20566;-72
2023/04/21 09:19:37;;;;;;;11.20;9.33;;;13.10;93.70;;;;;;4972536;28;20467;-71
2023/04/21 09:22:03;;;;;;;9.47;8.33;;;13.10;93.70;;;;;;4975355;28;20463;-75
2023/04/21 09:24:32;;;;;;;10.70;9.40;;;13.10;93.80;;;;;;4971105;28;20447;-77
2023/04/21 09:27:03;;;;;;;11.97;10.10;;;13.10;93.80;;;;;;4987992;28;20433;-76
2023/04/21 09:29:34;;;;;;;11.00;9.60;;;13.10;93.90;;;;;;4990033;28;20961;-77
2023/04/21 09:32:03;;;;;;;12.23;9.90;;;13.10;94.10;;;;;;4939847;28;20465;-78
2023/04/21 09:34:34;;;;;;;12.73;11.07;;;13.10;94.10;;;;;;4974939;28;20548;-78
2023/04/21 09:37:01;;;;;;;13.03;10.03;;;13.10;94.10;;;;;;4959738;28;21028;-78
2023/04/21 09:39:32;;;;;;;10.60;8.60;;;13.10;94.20;;;;;;4966491;28;20845;-75
2023/04/21 09:42:02;;;;;;;10.93;9.70;;;13.10;94.30;;;;;;4977409;28;20477;-76
2023/04/21 09:44:29;;;;;;;10.90;9.53;;;13.20;94.20;;;;;;4978074;28;20454;-76
2023/04/21 09:47:03;;;;;;;11.30;10.00;;;13.10;94.20;;;;;;4972377;28;20434;-76
2023/04/21 09:49:35;;;;;;;11.87;10.33;;;13.20;94.30;;;;;;4972993;28;20455;-76
2023/04/21 09:52:02;;;;;;;12.37;9.77;;;13.20;94.30;;;;;;4942907;28;20434;-76
2023/04/21 09:54:34;;;;;;;12.13;10.03;;;13.20;94.20;;;;;;4975972;28;20808;-76
2023/04/21 09:57:03;;;;;;;11.37;9.40;;;13.20;94.20;;;;;;4958725;28;20916;-76
2023/04/21 09:59:33;;;;;;;12.03;10.33;;;13.20;94.20;;;;;;4973744;28;20786;-75
2023/04/21 10:02:03;;;;;;;12.27;9.57;;;13.20;94.30;;;;;;4995268;28;20477;-76
2023/04/21 10:04:33;;;;;;;12.30;10.60;;;13.20;94.40;;;;;;4983600;28;20459;-78
2023/04/21 10:07:00;;;;;;;14.80;11.27;;;13.30;94.40;;;;;;4979766;28;20533;-79
2023/04/21 10:09:45;;;;;;;13.17;9.97;;;13.30;94.40;;;;;;4980190;28;20408;-80
2023/04/21 10:12:12;;;;;;;14.10;10.90;;;13.30;94.40;;;;;;4980643;28;20521;-78
2023/04/21 10:14:38;;;;;;;12.90;10.87;;;13.30;94.40;;;;;;4978372;28;20426;-73
2023/04/21 10:17:06;;;;;;;13.27;11.10;;;13.30;94.40;;;;;;4974966;28;20428;-72
2023/04/21 10:19:50;;;;;;;12.67;11.23;;;13.30;94.80;;;;;;4967282;28;20455;-72
2023/04/21 10:22:29;;;;;;;13.37;11.33;;;13.30;94.50;;;;;;4953572;29;20464;-74
2023/04/21 10:25:01;;;;;;;16.80;11.17;;;13.30;94.60;;;;;;4950742;28;20480;-74
2023/04/21 10:27:40;;;;;;;14.20;11.70;;;13.30;94.70;;;;;;4952471;29;20423;-74
2023/04/21 10:30:18;;;;;;;15.03;11.33;;;13.40;94.80;;;;;;4969043;28;20423;-74
2023/04/21 10:33:01;;;;;;;13.10;11.00;;;13.40;94.90;;;;;;4969425;28;20466;-74
2023/04/21 10:35:56;;;;;;;14.97;12.17;;;13.40;94.90;;;;;;4969251;28;20439;-74
2023/04/21 10:38:54;;;;;;;17.40;12.60;;;13.40;94.90;;;;;;4952498;28;20427;-75
2023/04/21 10:41:33;;;;;;;17.97;11.57;;;13.40;95.10;;;;;;4968271;28;20462;-74
2023/04/21 10:44:13;;;;;;;17.90;13.13;;;13.50;95.30;;;;;;4968067;28;20461;-74
2023/04/21 10:46:40;;;;;;;14.73;13.00;;;13.50;95.40;;;;;;4953064;29;20448;-74
2023/04/21 10:49:08;;;;;;;15.97;12.47;;;13.50;95.50;;;;;;4966470;28;20465;-74
2023/04/21 10:52:01;;;;;;;16.50;12.33;;;13.50;95.40;;;;;;4972038;28;20455;-74
2023/04/21 10:54:45;;;;;;;14.53;11.97;;;13.50;95.40;;;;;;4972898;28;20662;-74
2023/04/21 10:57:22;;;;;;;14.50;11.17;;;13.60;95.40;;;;;;4971744;28;20434;-74
2023/04/21 10:59:48;;;;;;;17.43;13.83;;;13.60;95.50;;;;;;4971890;28;20432;-74
2023/04/21 11:02:17;;;;;;;16.10;13.27;;;13.60;95.50;;;;;;4971032;28;20848;-74
2023/04/21 11:04:46;;;;;;;14.70;13.10;;;13.60;95.50;;;;;;4987787;28;20484;-74
2023/04/21 11:07:16;;;;;;;16.63;12.80;;;13.60;95.60;;;;;;4971998;28;20465;-74
2023/04/21 11:09:46;;;;;;;16.40;14.03;;;13.70;95.70;;;;;;4956037;28;20425;-75
2023/04/21 11:12:19;;;;;;;20.73;13.73;;;13.70;95.70;;;;;;4972741;28;20449;-75
2023/04/21 11:14:49;;;;;;;16.33;12.90;;;13.70;95.70;;;;;;4971687;28;20486;-74
2023/04/21 11:17:19;;;;;;;15.77;13.20;;;13.70;95.70;;;;;;4972271;28;20417;-74
2023/04/21 11:19:53;;;;;;;16.73;13.90;;;13.70;95.60;;;;;;4971981;28;21112;-75
2023/04/21 11:22:27;;;;;;;18.43;14.00;;;13.80;95.60;;;;;;4970808;28;20442;-74
2023/04/21 11:24:57;;;;;;;17.20;14.43;;;13.80;95.60;;;;;;4969558;28;20484;-74
2023/04/21 11:27:26;;;;;;;18.60;13.80;;;13.80;95.60;;;;;;4955722;28;20785;-74
2023/04/21 11:29:56;;;;;;;17.17;13.07;;;13.90;95.90;;;;;;4954703;28;20504;-74
2023/04/21 11:32:22;;;;;;;17.13;13.60;;;13.90;95.80;;;;;;4987564;28;20451;-74
2023/04/21 11:34:51;;;;;;;17.00;13.37;;;13.90;95.90;;;;;;4972538;28;20440;-75
2023/04/21 11:37:31;;;;;;;17.20;15.00;;;13.90;95.90;;;;;;4971165;28;20462;-74
2023/04/21 11:39:59;;;;;;;18.60;14.30;;;13.90;96.10;;;;;;4970721;28;20421;-74
2023/04/21 11:42:27;;;;;;;21.97;15.10;;;14.00;96.20;;;;;;4971501;28;20454;-74
2023/04/21 11:44:57;;;;;;;17.10;14.10;;;14.00;96.30;;;;;;4939427;28;20471;-74
2023/04/21 11:47:28;;;;;;;20.17;15.03;;;14.00;96.40;;;;;;4939659;28;20797;-75
2023/04/21 11:50:02;;;;;;;17.77;14.40;;;14.00;96.40;;;;;;4968248;28;20939;-74
2023/04/21 11:52:34;;;;;;;19.43;15.90;;;14.10;96.50;;;;;;4952263;29;20957;-74
2023/04/21 11:55:10;;;;;;;26.37;14.90;;;14.10;96.50;;;;;;4951723;29;20450;-75
2023/04/21 11:57:39;;;;;;;18.60;14.97;;;14.10;96.50;;;;;;4952262;28;20456;-75
2023/04/21 12:00:09;;;;;;;17.13;13.63;;;14.10;96.70;;;;;;4935399;29;20429;-75
2023/04/21 12:02:37;;;;;;;20.07;14.63;;;14.20;96.80;;;;;;4935933;29;20463;-74
2023/04/21 12:05:10;;;;;;;17.90;14.87;;;14.20;96.70;;;;;;4968050;28;20895;-74
2023/04/21 12:07:47;;;;;;;22.80;15.20;;;14.20;96.70;;;;;;4951921;29;20490;-74
2023/04/21 12:10:16;;;;;;;20.27;15.30;;;14.30;96.90;;;;;;4936311;29;20419;-75
2023/04/21 12:12:43;;;;;;;20.30;14.63;;;14.30;96.90;;;;;;4953234;28;20434;-75
2023/04/21 12:15:17;;;;;;;19.10;15.63;;;14.30;96.90;;;;;;4951592;29;20433;-74
2023/04/21 12:17:45;;;;;;;20.37;13.73;;;14.40;97.00;;;;;;4969517;28;20415;-75
2023/04/21 12:20:15;;;;;;;19.53;14.50;;;14.40;96.90;;;;;;4967529;28;20438;-74
2023/04/21 12:22:41;;;;;;;16.27;14.10;;;14.40;97.00;;;;;;4972154;28;20457;-74
2023/04/21 12:25:10;;;;;;;18.37;14.10;;;14.50;97.00;;;;;;4988974;28;20515;-76
2023/04/21 12:27:46;;;;;;;16.63;13.10;;;14.50;97.10;;;;;;5004292;28;20467;-76
2023/04/21 12:30:13;;;;;;;18.90;14.33;;;14.50;97.10;;;;;;4991892;28;20432;-76
2023/04/21 12:32:38;;;;;;;16.73;13.17;;;14.50;97.00;;;;;;4983021;28;20958;-76
2023/04/21 12:35:05;;;;;;;20.03;15.37;;;14.50;96.90;;;;;;4971606;28;20430;-76
2023/04/21 12:37:31;;;;;;;16.33;13.50;;;14.60;96.90;;;;;;4973131;28;20453;-76